createdAt,value
2018-11-27T00:00:19.506Z,-0.20
2018-11-27T00:01:23.117Z,-0.20
2018-11-27T00:02:26.839Z,-0.30
2018-11-27T00:03:35.920Z,-0.30
2018-11-27T00:04:39.518Z,-0.30
2018-11-27T00:05:43.161Z,-0.30
2018-11-27T00:06:48.781Z,-0.30
2018-11-27T00:07:52.428Z,-0.30
2018-11-27T00:08:56.136Z,-0.30
2018-11-27T00:09:59.763Z,-0.30
2018-11-27T00:11:03.389Z,-0.30
2018-11-27T00:12:07.017Z,-0.30
2018-11-27T00:13:10.670Z,-0.30
2018-11-27T00:14:14.358Z,-0.30
2018-11-27T00:15:18.105Z,-0.30
2018-11-27T00:16:21.734Z,-0.30
2018-11-27T00:17:25.512Z,-0.30
2018-11-27T00:18:29.189Z,-0.30
2018-11-27T00:19:32.818Z,-0.40
2018-11-27T00:20:36.663Z,-0.40
2018-11-27T00:21:40.286Z,-0.40
2018-11-27T00:22:43.925Z,-0.40
2018-11-27T00:23:47.568Z,-0.40
2018-11-27T00:24:51.204Z,-0.50
2018-11-27T00:25:54.857Z,-0.50
2018-11-27T00:26:58.488Z,-0.50
2018-11-27T00:28:02.234Z,-0.50
2018-11-27T00:29:05.920Z,-0.40
2018-11-27T00:30:12.530Z,-0.50
2018-11-27T00:31:16.273Z,-0.50
2018-11-27T00:32:19.892Z,-0.50
2018-11-27T00:33:23.567Z,-0.50
2018-11-27T00:34:27.210Z,-0.50
2018-11-27T00:35:32.135Z,-0.50
2018-11-27T00:36:35.797Z,-0.50
2018-11-27T00:37:39.503Z,-0.50
2018-11-27T00:38:43.140Z,-0.60
2018-11-27T00:39:46.789Z,-0.60
2018-11-27T00:40:50.463Z,-0.60
2018-11-27T00:41:54.078Z,-0.60
2018-11-27T00:42:57.764Z,-0.60
2018-11-27T00:44:01.427Z,-0.60
2018-11-27T00:45:07.129Z,-0.60
2018-11-27T00:46:10.778Z,-0.60
2018-11-27T00:47:14.389Z,-0.60
2018-11-27T00:48:18.045Z,-0.60
2018-11-27T00:49:21.650Z,-0.60
2018-11-27T00:50:25.354Z,-0.70
2018-11-27T00:51:29.000Z,-0.70
2018-11-27T00:52:32.604Z,-0.70
2018-11-27T00:53:36.221Z,-0.70
2018-11-27T00:54:39.856Z,-0.70
2018-11-27T00:55:43.537Z,-0.70
2018-11-27T00:56:47.145Z,-0.70
2018-11-27T00:57:52.180Z,-0.80
2018-11-27T00:58:55.796Z,-0.80
2018-11-27T00:59:59.374Z,-0.80
2018-11-27T01:01:03.013Z,-0.80
2018-11-27T01:02:06.638Z,-0.80
2018-11-27T01:03:10.290Z,-0.80
2018-11-27T01:04:13.874Z,-0.80
2018-11-27T01:05:18.829Z,-0.80
2018-11-27T01:06:22.459Z,-0.90
2018-11-27T01:07:26.107Z,-0.90
2018-11-27T01:08:29.758Z,-0.90
2018-11-27T01:09:33.400Z,-0.90
2018-11-27T01:10:37.027Z,-0.90
2018-11-27T01:11:40.651Z,-0.90
2018-11-27T01:12:44.311Z,-0.90
2018-11-27T01:13:47.965Z,-0.90
2018-11-27T01:14:51.620Z,-0.90
2018-11-27T01:15:55.295Z,-0.90
2018-11-27T01:16:58.944Z,-0.90
2018-11-27T01:18:02.644Z,-0.90
2018-11-27T01:19:06.291Z,-0.90
2018-11-27T01:20:12.418Z,-0.90
2018-11-27T01:21:16.056Z,-0.90
2018-11-27T01:22:19.706Z,-1.00
2018-11-27T01:23:23.374Z,-1.00
2018-11-27T01:24:27.140Z,-1.00
2018-11-27T01:25:30.795Z,-1.00
2018-11-27T01:26:34.413Z,-1.00
2018-11-27T01:27:38.046Z,-1.00
2018-11-27T01:28:41.701Z,-1.00
2018-11-27T01:29:45.314Z,-1.00
2018-11-27T01:30:49.039Z,-1.10
2018-11-27T01:31:52.668Z,-1.10
2018-11-27T01:32:56.290Z,-1.10
2018-11-27T01:33:59.916Z,-1.10
2018-11-27T01:35:03.602Z,-1.10
2018-11-27T01:36:07.208Z,-1.10
2018-11-27T01:37:10.862Z,-1.10
2018-11-27T01:38:14.569Z,-1.10
2018-11-27T01:39:18.205Z,-1.10
2018-11-27T01:40:22.861Z,-1.10
2018-11-27T01:41:26.479Z,-1.10
2018-11-27T01:42:30.223Z,-1.10
2018-11-27T01:43:34.081Z,-1.10
2018-11-27T01:44:37.728Z,-1.10
2018-11-27T01:45:41.489Z,-1.10
2018-11-27T01:46:45.090Z,-1.10
2018-11-27T01:47:48.842Z,-1.10
2018-11-27T01:48:52.807Z,-1.10
2018-11-27T01:49:56.422Z,-1.10
2018-11-27T01:51:00.057Z,-1.10
2018-11-27T01:52:03.686Z,-1.10
2018-11-27T01:53:07.293Z,-1.10
2018-11-27T01:54:10.910Z,-1.10
2018-11-27T01:55:15.526Z,-1.10
2018-11-27T01:56:19.197Z,-1.10
2018-11-27T01:57:22.879Z,-1.10
2018-11-27T01:58:26.499Z,-1.10
2018-11-27T01:59:30.095Z,-1.10
2018-11-27T02:00:33.841Z,-1.10
2018-11-27T02:01:37.590Z,-1.20
2018-11-27T02:02:41.245Z,-1.20
2018-11-27T02:03:44.888Z,-1.20
2018-11-27T02:04:48.533Z,-1.20
2018-11-27T02:05:52.199Z,-1.20
2018-11-27T02:06:55.856Z,-1.20
2018-11-27T02:07:59.466Z,-1.20
2018-11-27T02:09:04.489Z,-1.20
2018-11-27T02:10:09.803Z,-1.20
2018-11-27T02:11:13.444Z,-1.20
2018-11-27T02:12:17.081Z,-1.20
2018-11-27T02:13:20.777Z,-1.20
2018-11-27T02:14:24.419Z,-1.20
2018-11-27T02:15:28.766Z,-1.20
2018-11-27T02:16:32.401Z,-1.20
2018-11-27T02:17:36.147Z,-1.20
2018-11-27T02:18:39.757Z,-1.20
2018-11-27T02:19:43.404Z,-1.20
2018-11-27T02:20:47.045Z,-1.20
2018-11-27T02:21:50.764Z,-1.20
2018-11-27T02:22:54.500Z,-1.20
2018-11-27T02:23:58.098Z,-1.20
2018-11-27T02:25:01.728Z,-1.20
2018-11-27T02:26:05.482Z,-1.20
2018-11-27T02:27:09.220Z,-1.20
2018-11-27T02:28:12.836Z,-1.20
2018-11-27T02:29:16.453Z,-1.20
2018-11-27T02:30:21.394Z,-1.20
2018-11-27T02:31:25.079Z,-1.20
2018-11-27T02:32:28.719Z,-1.20
2018-11-27T02:33:32.458Z,-1.20
2018-11-27T02:34:36.076Z,-1.20
2018-11-27T02:35:39.686Z,-1.30
2018-11-27T02:36:43.329Z,-1.30
2018-11-27T02:37:49.025Z,-1.30
2018-11-27T02:38:52.674Z,-1.30
2018-11-27T02:39:56.299Z,-1.30
2018-11-27T02:40:59.897Z,-1.30
2018-11-27T02:42:03.555Z,-1.30
2018-11-27T02:43:07.178Z,-1.30
2018-11-27T02:44:10.843Z,-1.30
2018-11-27T02:45:15.795Z,-1.30
2018-11-27T02:46:19.431Z,-1.30
2018-11-27T02:47:23.094Z,-1.30
2018-11-27T02:48:26.732Z,-1.30
2018-11-27T02:49:30.506Z,-1.30
2018-11-27T02:50:34.254Z,-1.30
2018-11-27T02:51:37.865Z,-1.30
2018-11-27T02:52:41.483Z,-1.30
2018-11-27T02:53:45.217Z,-1.30
2018-11-27T02:54:48.825Z,-1.30
2018-11-27T02:55:52.654Z,-1.30
2018-11-27T02:56:56.336Z,-1.30
2018-11-27T02:58:00.040Z,-1.30
2018-11-27T02:59:03.679Z,-1.30
2018-11-27T03:00:10.313Z,-1.40
2018-11-27T03:01:13.934Z,-1.40
2018-11-27T03:02:17.562Z,-1.40
2018-11-27T03:03:21.358Z,-1.40
2018-11-27T03:04:25.005Z,-1.40
2018-11-27T03:05:35.016Z,-1.40
2018-11-27T03:06:38.642Z,-1.40
2018-11-27T03:07:42.251Z,-1.40
2018-11-27T03:08:45.861Z,-1.40
2018-11-27T03:09:49.512Z,-1.40
2018-11-27T03:10:53.134Z,-1.40
2018-11-27T03:11:56.736Z,-1.40
2018-11-27T03:13:00.465Z,-1.40
2018-11-27T03:14:04.646Z,-1.40
2018-11-27T03:15:10.226Z,-1.40
2018-11-27T03:16:14.092Z,-1.40
2018-11-27T03:17:17.705Z,-1.40
2018-11-27T03:18:21.325Z,-1.40
2018-11-27T03:19:24.930Z,-1.40
2018-11-27T03:20:28.573Z,-1.40
2018-11-27T03:21:32.205Z,-1.50
2018-11-27T03:22:35.826Z,-1.50
2018-11-27T03:23:39.530Z,-1.50
2018-11-27T03:24:43.216Z,-1.50
2018-11-27T03:25:46.831Z,-1.40
2018-11-27T03:26:50.482Z,-1.40
2018-11-27T03:27:54.390Z,-1.50
2018-11-27T03:28:57.999Z,-1.50
2018-11-27T03:30:01.682Z,-1.50
2018-11-27T03:31:05.387Z,-1.50
2018-11-27T03:32:09.034Z,-1.50
2018-11-27T03:33:12.642Z,-1.60
2018-11-27T03:34:16.250Z,-1.60
2018-11-27T03:35:21.058Z,-1.60
2018-11-27T03:36:24.650Z,-1.60
2018-11-27T03:37:28.236Z,-1.60
2018-11-27T03:38:31.890Z,-1.60
2018-11-27T03:39:35.516Z,-1.60
2018-11-27T03:40:39.137Z,-1.60
2018-11-27T03:41:42.753Z,-1.60
2018-11-27T03:42:46.435Z,-1.60
2018-11-27T03:43:50.145Z,-1.60
2018-11-27T03:44:53.768Z,-1.60
2018-11-27T03:45:57.409Z,-1.60
2018-11-27T03:47:01.050Z,-1.60
2018-11-27T03:48:04.926Z,-1.60
2018-11-27T03:49:08.616Z,-1.60
2018-11-27T03:50:15.138Z,-1.60
2018-11-27T03:51:18.798Z,-1.60
2018-11-27T03:52:22.414Z,-1.60
2018-11-27T03:53:26.060Z,-1.60
2018-11-27T03:54:29.681Z,-1.60
2018-11-27T03:55:33.294Z,-1.60
2018-11-27T03:56:36.913Z,-1.60
2018-11-27T03:57:40.646Z,-1.60
2018-11-27T03:58:44.330Z,-1.60
2018-11-27T03:59:47.946Z,-1.60
2018-11-27T04:00:51.564Z,-1.60
2018-11-27T04:01:55.374Z,-1.60
2018-11-27T04:03:08.924Z,-1.70
2018-11-27T04:04:12.623Z,-1.70
2018-11-27T04:05:16.259Z,-1.70
2018-11-27T04:06:19.882Z,-1.70
2018-11-27T04:07:23.541Z,-1.70
2018-11-27T04:08:27.132Z,-1.70
2018-11-27T04:09:30.778Z,-1.70
2018-11-27T04:10:34.451Z,-1.70
2018-11-27T04:11:38.084Z,-1.70
2018-11-27T04:12:41.703Z,-1.70
2018-11-27T04:13:45.294Z,-1.70
2018-11-27T04:14:49.032Z,-1.70
2018-11-27T04:15:52.695Z,-1.70
2018-11-27T04:16:56.302Z,-1.70
2018-11-27T04:17:59.985Z,-1.70
2018-11-27T04:19:03.580Z,-1.70
2018-11-27T04:20:08.550Z,-1.70
2018-11-27T04:21:12.175Z,-1.80
2018-11-27T04:22:15.781Z,-1.80
2018-11-27T04:23:19.474Z,-1.80
2018-11-27T04:24:23.098Z,-1.80
2018-11-27T04:25:26.771Z,-1.80
2018-11-27T04:26:30.375Z,-1.80
2018-11-27T04:27:34.086Z,-1.80
2018-11-27T04:28:37.835Z,-1.80
2018-11-27T04:29:41.434Z,-1.90
2018-11-27T04:30:45.661Z,-1.90
2018-11-27T04:31:49.263Z,-1.90
2018-11-27T04:32:52.895Z,-1.90
2018-11-27T04:33:56.532Z,-1.90
2018-11-27T04:35:00.258Z,-1.90
2018-11-27T04:36:03.893Z,-1.90
2018-11-27T04:37:07.533Z,-1.90
2018-11-27T04:38:11.140Z,-1.90
2018-11-27T04:39:14.766Z,-1.90
2018-11-27T04:40:19.422Z,-1.90
2018-11-27T04:41:23.075Z,-1.90
2018-11-27T04:42:26.690Z,-1.90
2018-11-27T04:43:30.409Z,-1.90
2018-11-27T04:44:34.029Z,-2.00
2018-11-27T04:45:37.646Z,-2.00
2018-11-27T04:46:41.294Z,-2.00
2018-11-27T04:47:44.926Z,-2.00
2018-11-27T04:48:48.630Z,-2.00
2018-11-27T04:49:52.245Z,-2.00
2018-11-27T04:50:56.073Z,-2.00
2018-11-27T04:51:59.730Z,-2.00
2018-11-27T04:53:03.468Z,-2.00
2018-11-27T04:54:07.198Z,-2.00
2018-11-27T04:55:12.630Z,-2.00
2018-11-27T04:56:16.368Z,-2.00
2018-11-27T04:57:19.977Z,-2.00
2018-11-27T04:58:23.645Z,-2.00
2018-11-27T04:59:27.249Z,-2.00
2018-11-27T05:00:30.867Z,-2.00
2018-11-27T05:01:34.523Z,-2.00
2018-11-27T05:02:38.203Z,-2.00
2018-11-27T05:03:41.793Z,-1.90
2018-11-27T05:04:45.576Z,-1.90
2018-11-27T05:05:49.790Z,-1.90
2018-11-27T05:06:53.419Z,-1.90
2018-11-27T05:07:57.054Z,-1.90
2018-11-27T05:09:00.687Z,-1.90
2018-11-27T05:10:07.602Z,-2.00
2018-11-27T05:11:11.226Z,-2.00
2018-11-27T05:12:14.925Z,-2.00
2018-11-27T05:13:18.542Z,-2.00
2018-11-27T05:14:22.255Z,-2.00
2018-11-27T05:15:26.598Z,-2.00
2018-11-27T05:16:30.239Z,-2.00
2018-11-27T05:17:33.910Z,-1.90
2018-11-27T05:18:37.539Z,-2.00
2018-11-27T05:19:41.143Z,-2.00
2018-11-27T05:20:44.766Z,-2.00
2018-11-27T05:21:48.886Z,-2.00
2018-11-27T05:22:52.552Z,-2.00
2018-11-27T05:23:56.165Z,-2.00
2018-11-27T05:24:59.781Z,-1.90
2018-11-27T05:26:03.437Z,-1.90
2018-11-27T05:27:07.056Z,-1.90
2018-11-27T05:28:10.723Z,-1.90
2018-11-27T05:30:25.447Z,-1.90
2018-11-27T05:31:29.053Z,-2.00
2018-11-27T05:32:32.661Z,-2.00
2018-11-27T05:33:36.435Z,-2.00
2018-11-27T05:34:40.044Z,-2.00
2018-11-27T05:35:43.642Z,-2.00
2018-11-27T05:36:47.310Z,-2.00
2018-11-27T05:37:51.186Z,-2.00
2018-11-27T05:38:54.856Z,-2.00
2018-11-27T05:39:58.486Z,-2.00
2018-11-27T05:41:02.086Z,-2.00
2018-11-27T05:42:05.948Z,-2.00
2018-11-27T05:43:10.335Z,-2.00
2018-11-27T05:44:13.962Z,-2.00
2018-11-27T05:45:18.713Z,-2.00
2018-11-27T05:46:22.348Z,-2.10
2018-11-27T05:47:25.953Z,-2.00
2018-11-27T05:48:29.562Z,-2.10
2018-11-27T05:49:33.173Z,-2.10
2018-11-27T05:50:36.786Z,-2.10
2018-11-27T05:51:40.421Z,-2.10
2018-11-27T05:52:44.226Z,-2.10
2018-11-27T05:53:47.879Z,-2.10
2018-11-27T05:54:51.525Z,-2.10
2018-11-27T05:55:55.130Z,-2.20
2018-11-27T05:56:58.830Z,-2.10
2018-11-27T05:58:02.429Z,-2.10
2018-11-27T05:59:06.390Z,-2.10
2018-11-27T06:00:12.592Z,-2.10
2018-11-27T06:01:16.215Z,-2.10
2018-11-27T06:02:19.888Z,-2.10
2018-11-27T06:03:23.507Z,-2.10
2018-11-27T06:04:27.128Z,-2.10
2018-11-27T06:05:30.837Z,-2.10
2018-11-27T06:06:34.482Z,-2.10
2018-11-27T06:07:38.130Z,-2.10
2018-11-27T06:08:41.770Z,-2.10
2018-11-27T06:09:45.400Z,-2.10
2018-11-27T06:10:49.068Z,-2.10
2018-11-27T06:11:52.702Z,-2.10
2018-11-27T06:12:56.345Z,-2.00
2018-11-27T06:13:59.963Z,-2.10
2018-11-27T06:15:03.597Z,-2.10
2018-11-27T06:16:07.227Z,-2.10
2018-11-27T06:17:10.851Z,-2.10
2018-11-27T06:18:14.463Z,-2.10
2018-11-27T06:19:18.121Z,-2.10
2018-11-27T06:20:22.421Z,-2.10
2018-11-27T06:21:26.134Z,-2.10
2018-11-27T06:22:29.733Z,-2.10
2018-11-27T06:23:33.327Z,-2.10
2018-11-27T06:24:36.942Z,-2.10
2018-11-27T06:25:40.603Z,-2.10
2018-11-27T06:26:44.268Z,-2.10
2018-11-27T06:27:49.344Z,-2.10
2018-11-27T06:28:52.970Z,-2.10
2018-11-27T06:29:56.602Z,-2.10
2018-11-27T06:31:00.259Z,-2.10
2018-11-27T06:32:03.880Z,-2.10
2018-11-27T06:33:07.516Z,-2.10
2018-11-27T06:34:11.165Z,-2.10
2018-11-27T06:35:17.179Z,-2.10
2018-11-27T06:36:20.787Z,-2.00
2018-11-27T06:37:24.427Z,-2.00
2018-11-27T06:38:28.046Z,-2.00
2018-11-27T06:39:31.723Z,-2.00
2018-11-27T06:40:35.331Z,-2.00
2018-11-27T06:41:38.925Z,-2.00
2018-11-27T06:42:42.706Z,-1.90
2018-11-27T06:43:46.331Z,-1.90
2018-11-27T06:44:50.024Z,-1.90
2018-11-27T06:45:53.656Z,-1.90
2018-11-27T06:46:57.304Z,-1.90
2018-11-27T06:48:00.924Z,-1.90
2018-11-27T06:49:04.622Z,-1.80
2018-11-27T06:50:09.995Z,-1.80
2018-11-27T06:51:13.634Z,-1.80
2018-11-27T06:52:17.239Z,-1.80
2018-11-27T06:53:20.965Z,-1.80
2018-11-27T06:54:24.601Z,-1.80
2018-11-27T06:55:28.237Z,-1.80
2018-11-27T06:56:31.852Z,-1.80
2018-11-27T06:57:35.692Z,-1.70
2018-11-27T06:58:39.427Z,-1.70
2018-11-27T06:59:43.048Z,-1.70
2018-11-27T07:00:46.636Z,-1.70
2018-11-27T07:01:50.273Z,-1.70
2018-11-27T07:02:54.380Z,-1.70
2018-11-27T07:03:58.019Z,-1.70
2018-11-27T07:05:01.823Z,-1.70
2018-11-27T07:06:05.716Z,-1.60
2018-11-27T07:07:09.357Z,-1.60
2018-11-27T07:08:13.005Z,-1.60
2018-11-27T07:09:16.649Z,-1.60
2018-11-27T07:10:22.689Z,-1.60
2018-11-27T07:11:26.337Z,-1.60
2018-11-27T07:12:29.969Z,-1.60
2018-11-27T07:13:33.629Z,-1.50
2018-11-27T07:14:37.252Z,-1.50
2018-11-27T07:15:40.922Z,-1.50
2018-11-27T07:16:44.561Z,-1.50
2018-11-27T07:17:48.183Z,-1.50
2018-11-27T07:18:51.881Z,-1.50
2018-11-27T07:19:55.496Z,-1.40
2018-11-27T07:20:59.145Z,-1.40
2018-11-27T07:22:02.751Z,-1.40
2018-11-27T07:23:07.096Z,-1.40
2018-11-27T07:24:10.749Z,-1.40
2018-11-27T07:25:15.167Z,-1.40
2018-11-27T07:26:18.835Z,-1.40
2018-11-27T07:27:22.460Z,-1.40
2018-11-27T07:28:26.080Z,-1.40
2018-11-27T07:29:29.696Z,-1.40
2018-11-27T07:30:33.303Z,-1.40
2018-11-27T07:31:36.938Z,-1.50
2018-11-27T07:32:40.568Z,-1.40
2018-11-27T07:33:44.226Z,-1.40
2018-11-27T07:34:47.890Z,-1.40
2018-11-27T07:35:51.507Z,-1.40
2018-11-27T07:36:55.123Z,-1.40
2018-11-27T07:37:58.757Z,-1.40
2018-11-27T07:39:02.406Z,-1.40
2018-11-27T07:40:09.301Z,-1.40
2018-11-27T07:41:12.923Z,-1.40
2018-11-27T07:42:16.558Z,-1.40
2018-11-27T07:43:20.184Z,-1.40
2018-11-27T07:44:23.785Z,-1.40
2018-11-27T07:45:27.456Z,-1.40
2018-11-27T07:46:31.125Z,-1.40
2018-11-27T07:47:34.763Z,-1.30
2018-11-27T07:48:39.059Z,-1.30
2018-11-27T07:49:42.701Z,-1.30
2018-11-27T07:50:46.543Z,-1.30
2018-11-27T07:51:50.196Z,-1.30
2018-11-27T07:52:53.892Z,-1.30
2018-11-27T07:53:57.528Z,-1.30
2018-11-27T07:55:01.158Z,-1.30
2018-11-27T07:56:06.133Z,-1.30
2018-11-27T07:57:09.785Z,-1.20
2018-11-27T07:58:13.419Z,-1.20
2018-11-27T07:59:17.058Z,-1.20
2018-11-27T08:00:22.605Z,-1.20
2018-11-27T08:01:26.236Z,-1.20
2018-11-27T08:02:29.829Z,-1.20
2018-11-27T08:03:33.564Z,-1.10
2018-11-27T08:04:37.194Z,-1.20
2018-11-27T08:05:41.363Z,-1.20
2018-11-27T08:06:45.022Z,-1.20
2018-11-27T08:07:53.773Z,-1.10
2018-11-27T08:08:57.390Z,-1.00
2018-11-27T08:10:00.994Z,-1.00
2018-11-27T08:11:04.773Z,-1.00
2018-11-27T08:12:08.412Z,-1.00
2018-11-27T08:13:12.154Z,-1.00
2018-11-27T08:14:15.751Z,-1.00
2018-11-27T08:15:20.766Z,-1.00
2018-11-27T08:16:24.398Z,-1.00
2018-11-27T08:17:28.084Z,-1.00
2018-11-27T08:18:31.757Z,-0.90
2018-11-27T08:19:35.382Z,-0.90
2018-11-27T08:20:39.038Z,-0.90
2018-11-27T08:21:43.115Z,-0.80
2018-11-27T08:22:46.793Z,-0.80
2018-11-27T08:23:50.593Z,-0.80
2018-11-27T08:24:54.203Z,-0.80
2018-11-27T08:25:57.802Z,-0.70
2018-11-27T08:27:01.467Z,-0.70
2018-11-27T08:28:06.489Z,-0.60
2018-11-27T08:29:10.125Z,-0.60
2018-11-27T08:30:15.001Z,-0.50
2018-11-27T08:31:18.632Z,-0.50
2018-11-27T08:32:22.268Z,-0.40
2018-11-27T08:33:25.915Z,-0.40
2018-11-27T08:34:29.563Z,-0.40
2018-11-27T08:35:33.265Z,-0.30
2018-11-27T08:36:37.067Z,-0.20
2018-11-27T08:37:41.132Z,-0.20
2018-11-27T08:38:44.786Z,-0.10
2018-11-27T08:39:48.432Z,0.00
2018-11-27T08:40:52.068Z,0.00
2018-11-27T08:41:55.695Z,-0.10
2018-11-27T08:42:59.323Z,-0.10
2018-11-27T08:44:03.035Z,-0.10
2018-11-27T08:45:15.144Z,0.00
2018-11-27T08:46:18.757Z,0.00
2018-11-27T08:47:22.370Z,0.10
2018-11-27T08:48:32.567Z,0.10
2018-11-27T08:49:36.171Z,0.00
2018-11-27T08:50:40.438Z,0.00
2018-11-27T08:51:44.147Z,-0.10
2018-11-27T08:52:48.957Z,-0.10
2018-11-27T08:53:52.606Z,-0.20
2018-11-27T08:54:56.483Z,-0.20
2018-11-27T08:56:00.119Z,-0.20
2018-11-27T08:57:03.759Z,-0.20
2018-11-27T08:58:17.010Z,-0.20
2018-11-27T08:59:20.665Z,-0.20
2018-11-27T09:00:25.329Z,-0.10
2018-11-27T09:01:29.037Z,-0.10
2018-11-27T09:02:32.647Z,-0.10
2018-11-27T09:03:36.265Z,0.00
2018-11-27T09:04:39.873Z,0.00
2018-11-27T09:05:43.499Z,0.00
2018-11-27T09:06:47.128Z,0.00
2018-11-27T09:07:50.811Z,0.00
2018-11-27T09:08:54.469Z,0.00
2018-11-27T09:09:58.090Z,0.00
2018-11-27T09:11:01.706Z,0.00
2018-11-27T09:12:05.653Z,0.00
2018-11-27T09:13:09.232Z,0.10
2018-11-27T09:14:14.049Z,0.10
2018-11-27T09:15:17.888Z,0.10
2018-11-27T09:16:22.568Z,0.10
2018-11-27T09:17:27.531Z,0.10
2018-11-27T09:18:31.214Z,0.10
2018-11-27T09:19:34.985Z,0.10
2018-11-27T09:20:38.666Z,0.10
2018-11-27T09:21:42.372Z,0.20
2018-11-27T09:22:46.090Z,0.20
2018-11-27T09:23:49.751Z,0.20
2018-11-27T09:24:53.430Z,0.20
2018-11-27T09:25:57.116Z,0.20
2018-11-27T09:27:00.813Z,0.20
2018-11-27T09:28:04.504Z,0.20
2018-11-27T09:29:08.118Z,0.30
2018-11-27T09:30:17.889Z,0.30
2018-11-27T09:31:21.506Z,0.30
2018-11-27T09:32:25.119Z,0.30
2018-11-27T09:33:28.729Z,0.30
2018-11-27T09:34:32.343Z,0.40
2018-11-27T09:35:36.117Z,0.40
2018-11-27T09:36:39.747Z,0.40
2018-11-27T09:37:43.377Z,0.40
2018-11-27T09:38:47.078Z,0.50
2018-11-27T09:39:50.677Z,0.40
2018-11-27T09:40:54.547Z,0.40
2018-11-27T09:41:58.353Z,0.40
2018-11-27T09:43:01.972Z,0.50
2018-11-27T09:44:07.402Z,0.50
2018-11-27T09:45:12.382Z,0.50
2018-11-27T09:46:15.982Z,0.50
2018-11-27T09:47:19.717Z,0.40
2018-11-27T09:48:23.352Z,0.40
2018-11-27T09:49:27.071Z,0.50
2018-11-27T09:50:30.790Z,0.50
2018-11-27T09:51:34.542Z,0.50
2018-11-27T09:52:38.847Z,0.40
2018-11-27T09:53:42.594Z,0.40
2018-11-27T09:54:46.239Z,0.40
2018-11-27T09:55:49.852Z,0.40
2018-11-27T09:56:53.521Z,0.40
2018-11-27T09:57:59.365Z,0.30
2018-11-27T09:59:00.769Z,0.30
2018-11-27T10:00:05.842Z,0.30
2018-11-27T10:01:09.830Z,0.30
2018-11-27T10:02:13.602Z,0.30
2018-11-27T10:03:17.270Z,0.30
2018-11-27T10:04:20.876Z,0.30
2018-11-27T10:05:24.495Z,0.30
2018-11-27T10:06:28.316Z,0.30
2018-11-27T10:07:32.046Z,0.40
2018-11-27T10:08:35.650Z,0.40
2018-11-27T10:09:40.022Z,0.50
2018-11-27T10:10:43.455Z,0.50
2018-11-27T10:11:48.214Z,0.50
2018-11-27T10:12:52.428Z,0.50
2018-11-27T10:13:56.121Z,0.60
2018-11-27T10:14:59.770Z,0.60
2018-11-27T10:16:03.410Z,0.60
2018-11-27T10:17:06.999Z,0.60
2018-11-27T10:18:10.638Z,0.70
2018-11-27T10:19:14.235Z,0.70
2018-11-27T10:20:19.856Z,0.70
2018-11-27T10:21:23.498Z,0.70
2018-11-27T10:22:27.184Z,0.70
2018-11-27T10:23:30.927Z,0.70
2018-11-27T10:24:34.699Z,0.70
2018-11-27T10:25:38.352Z,0.70
2018-11-27T10:26:41.994Z,0.70
2018-11-27T10:27:45.678Z,0.70
2018-11-27T10:28:49.348Z,0.70
2018-11-27T10:29:52.977Z,0.70
2018-11-27T10:30:56.650Z,0.70
2018-11-27T10:32:00.313Z,0.70
2018-11-27T10:33:05.592Z,0.70
2018-11-27T10:34:09.223Z,0.70
2018-11-27T10:35:32.215Z,0.70
2018-11-27T10:36:35.820Z,0.70
2018-11-27T10:37:39.432Z,0.70
2018-11-27T10:38:43.152Z,0.70
2018-11-27T10:39:46.787Z,0.80
2018-11-27T10:40:50.388Z,0.80
2018-11-27T10:41:54.010Z,0.80
2018-11-27T10:42:57.654Z,0.80
2018-11-27T10:44:01.236Z,0.80
2018-11-27T10:45:07.024Z,0.80
2018-11-27T10:46:10.743Z,0.80
2018-11-27T10:47:14.316Z,0.80
2018-11-27T10:48:17.993Z,0.90
2018-11-27T10:49:21.619Z,0.90
2018-11-27T10:50:25.454Z,0.90
2018-11-27T10:51:29.206Z,0.90
2018-11-27T10:52:32.850Z,0.90
2018-11-27T10:53:36.456Z,0.90
2018-11-27T10:54:40.132Z,0.90
2018-11-27T10:55:43.832Z,0.90
2018-11-27T10:56:47.429Z,0.90
2018-11-27T10:57:51.074Z,0.90
2018-11-27T10:58:54.758Z,0.90
2018-11-27T10:59:58.362Z,0.90
2018-11-27T11:01:08.822Z,1.00
2018-11-27T11:02:17.860Z,1.00
2018-11-27T11:03:24.923Z,1.00
2018-11-27T11:04:28.554Z,1.10
2018-11-27T11:05:34.200Z,1.10
2018-11-27T11:06:37.810Z,1.10
2018-11-27T11:07:41.406Z,1.10
2018-11-27T11:08:45.017Z,1.10
2018-11-27T11:09:48.607Z,1.00
2018-11-27T11:10:52.270Z,1.00
2018-11-27T11:11:59.225Z,1.00
2018-11-27T11:12:59.525Z,1.00
2018-11-27T11:14:03.152Z,1.10
2018-11-27T11:15:07.548Z,1.10
2018-11-27T11:16:11.177Z,1.20
2018-11-27T11:17:14.808Z,1.20
2018-11-27T11:18:18.518Z,1.30
2018-11-27T11:19:22.144Z,1.30
2018-11-27T11:20:25.883Z,1.30
2018-11-27T11:21:29.467Z,1.40
2018-11-27T11:22:33.065Z,1.40
2018-11-27T11:23:36.779Z,1.40
2018-11-27T11:24:40.370Z,1.40
2018-11-27T11:25:44.595Z,1.40
2018-11-27T11:26:47.629Z,1.40
2018-11-27T11:27:54.872Z,1.40
2018-11-27T11:28:58.528Z,1.40
2018-11-27T11:30:02.186Z,1.30
2018-11-27T11:31:06.736Z,1.30
2018-11-27T11:32:10.141Z,1.30
2018-11-27T11:33:13.758Z,1.40
2018-11-27T11:34:17.387Z,1.40
2018-11-27T11:35:21.066Z,1.40
2018-11-27T11:36:24.685Z,1.40
2018-11-27T11:37:28.307Z,1.30
2018-11-27T11:38:31.987Z,1.30
2018-11-27T11:39:35.593Z,1.40
2018-11-27T11:40:39.204Z,1.30
2018-11-27T11:41:42.944Z,1.30
2018-11-27T11:42:47.036Z,1.40
2018-11-27T11:43:50.662Z,1.40
2018-11-27T11:44:54.398Z,1.30
2018-11-27T11:45:58.036Z,1.30
2018-11-27T11:47:01.904Z,1.30
2018-11-27T11:48:05.894Z,1.30
2018-11-27T11:49:09.510Z,1.20
2018-11-27T11:50:15.356Z,1.20
2018-11-27T11:51:19.633Z,1.30
2018-11-27T11:52:23.236Z,1.30
2018-11-27T11:53:26.991Z,1.30
2018-11-27T11:54:30.713Z,1.30
2018-11-27T11:55:34.331Z,1.40
2018-11-27T11:56:37.941Z,1.50
2018-11-27T11:57:42.129Z,1.50
2018-11-27T11:58:45.758Z,1.50
2018-11-27T11:59:49.375Z,1.50
2018-11-27T12:00:54.198Z,1.50
2018-11-27T12:01:57.827Z,1.50
2018-11-27T12:03:01.645Z,1.50
2018-11-27T12:04:05.590Z,1.40
2018-11-27T12:05:10.253Z,1.40
2018-11-27T12:06:13.878Z,1.40
2018-11-27T12:07:17.556Z,1.40
2018-11-27T12:08:21.348Z,1.30
2018-11-27T12:09:24.971Z,1.30
2018-11-27T12:10:28.604Z,1.30
2018-11-27T12:11:32.359Z,1.30
2018-11-27T12:12:35.954Z,1.40
2018-11-27T12:13:39.571Z,1.30
2018-11-27T12:14:43.195Z,1.40
2018-11-27T12:15:46.827Z,1.40
2018-11-27T12:16:50.453Z,1.40
2018-11-27T12:17:54.083Z,1.40
2018-11-27T12:18:57.711Z,1.40
2018-11-27T12:20:01.321Z,1.40
2018-11-27T12:21:04.958Z,1.40
2018-11-27T12:22:08.618Z,1.40
2018-11-27T12:23:12.626Z,1.40
2018-11-27T12:24:16.254Z,1.40
2018-11-27T12:25:24.240Z,1.40
2018-11-27T12:26:23.671Z,1.50
2018-11-27T12:27:27.301Z,1.50
2018-11-27T12:28:30.898Z,1.40
2018-11-27T12:29:34.549Z,1.50
2018-11-27T12:30:38.187Z,1.40
2018-11-27T12:31:41.875Z,1.40
2018-11-27T12:32:45.523Z,1.40
2018-11-27T12:33:49.356Z,1.40
2018-11-27T12:34:52.999Z,1.40
2018-11-27T12:35:56.698Z,1.40
2018-11-27T12:37:00.311Z,1.40
2018-11-27T12:38:04.036Z,1.40
2018-11-27T12:39:08.319Z,1.40
2018-11-27T12:40:13.022Z,1.40
2018-11-27T12:41:16.629Z,1.40
2018-11-27T12:42:20.339Z,1.40
2018-11-27T12:43:23.957Z,1.40
2018-11-27T12:44:27.582Z,1.40
2018-11-27T12:45:32.192Z,1.40
2018-11-27T12:46:35.801Z,1.40
2018-11-27T12:47:39.582Z,1.40
2018-11-27T12:48:43.163Z,1.40
2018-11-27T12:49:46.766Z,1.40
2018-11-27T12:50:50.440Z,1.50
2018-11-27T12:51:54.028Z,1.40
2018-11-27T12:52:57.633Z,1.40
2018-11-27T12:54:08.039Z,1.40
2018-11-27T12:55:13.043Z,1.40
2018-11-27T12:56:16.677Z,1.40
2018-11-27T12:57:20.294Z,1.40
2018-11-27T12:58:23.886Z,1.30
2018-11-27T12:59:27.610Z,1.30
2018-11-27T13:00:31.246Z,1.30
2018-11-27T13:01:34.928Z,1.30
2018-11-27T13:02:38.622Z,1.30
2018-11-27T13:03:42.232Z,1.30
2018-11-27T13:04:45.863Z,1.30
2018-11-27T13:05:49.525Z,1.40
2018-11-27T13:06:53.125Z,1.40
2018-11-27T13:08:00.311Z,1.40
2018-11-27T13:09:07.057Z,1.30
2018-11-27T13:10:13.685Z,1.30
2018-11-27T13:11:17.327Z,1.30
2018-11-27T13:12:20.945Z,1.40
2018-11-27T13:13:24.565Z,1.40
2018-11-27T13:14:28.182Z,1.40
2018-11-27T13:15:31.790Z,1.30
2018-11-27T13:16:35.371Z,1.30
2018-11-27T13:17:39.022Z,1.40
2018-11-27T13:18:42.581Z,1.40
2018-11-27T13:19:46.242Z,1.40
2018-11-27T13:20:49.859Z,1.40
2018-11-27T13:21:53.459Z,1.40
2018-11-27T13:22:57.053Z,1.30
2018-11-27T13:24:00.827Z,1.30
2018-11-27T13:25:05.946Z,1.30
2018-11-27T13:26:09.600Z,1.30
2018-11-27T13:27:13.257Z,1.30
2018-11-27T13:28:16.831Z,1.30
2018-11-27T13:29:20.454Z,1.30
2018-11-27T13:30:26.436Z,1.30
2018-11-27T13:31:30.891Z,1.30
2018-11-27T13:32:34.528Z,1.30
2018-11-27T13:33:58.127Z,1.30
2018-11-27T13:35:01.707Z,1.30
2018-11-27T13:36:06.670Z,1.30
2018-11-27T13:37:10.390Z,1.30
2018-11-27T13:38:14.047Z,1.30
2018-11-27T13:39:29.929Z,1.30
2018-11-27T13:40:33.571Z,1.30
2018-11-27T13:41:37.235Z,1.30
2018-11-27T13:42:41.297Z,1.30
2018-11-27T13:43:44.893Z,1.30
2018-11-27T13:44:48.495Z,1.30
2018-11-27T13:45:52.434Z,1.30
2018-11-27T13:46:55.902Z,1.30
2018-11-27T13:47:59.520Z,1.30
2018-11-27T13:49:03.223Z,1.30
2018-11-27T13:50:09.489Z,1.30
2018-11-27T13:51:13.107Z,1.30
2018-11-27T13:52:16.743Z,1.30
2018-11-27T13:53:20.366Z,1.30
2018-11-27T13:54:23.998Z,1.30